Time;durP1;ratioP1;P1;durP2;ratioP2;P2;SDS_P1;SDS_P2;PMS_P1;PMS_P2;Temp;Humidity;BMP_temperature;BMP_pressure;BME280_temperature;BME280_humidity;BME280_pressure;Samples;Min_cycle;Max_cycle;Signal;HPM_P1;HPM_P2
2021/10/26 00:00:48;;;;;;;5.53;4.72;;;;;;;;;;4987691;28;20201;-78
2021/10/26 00:03:15;;;;;;;5.35;4.43;;;;;;;;;;4986777;28;20197;-78
2021/10/26 00:05:42;;;;;;;5.90;5.40;;;;;;;;;;4983405;28;20492;-79
2021/10/26 00:08:09;;;;;;;5.75;4.65;;;;;;;;;;4977336;28;20205;-79
2021/10/26 00:10:38;;;;;;;6.30;4.78;;;;;;;;;;4977299;28;20435;-78
2021/10/26 00:13:05;;;;;;;5.10;4.60;;;;;;;;;;4986651;28;20225;-78
2021/10/26 00:15:32;;;;;;;5.47;4.88;;;;;;;;;;4986175;28;20673;-80
2021/10/26 00:17:59;;;;;;;4.68;4.18;;;;;;;;;;4981040;28;20203;-80
2021/10/26 00:20:26;;;;;;;5.10;4.70;;;;;;;;;;4984070;28;20205;-81
2021/10/26 00:22:53;;;;;;;5.25;4.75;;;;;;;;;;4983547;28;20198;-80
2021/10/26 00:25:20;;;;;;;6.05;5.22;;;;;;;;;;4980878;28;20198;-81
2021/10/26 00:27:48;;;;;;;4.68;4.13;;;;;;;;;;4986764;28;20289;-81
2021/10/26 00:30:15;;;;;;;4.55;4.15;;;;;;;;;;4989192;28;20197;-81
2021/10/26 00:32:42;;;;;;;7.40;5.53;;;;;;;;;;4992123;28;20189;-81
2021/10/26 00:35:10;;;;;;;5.82;5.15;;;;;;;;;;4979717;28;20222;-80
2021/10/26 00:37:37;;;;;;;6.30;4.63;;;;;;;;;;4975027;28;20209;-80
2021/10/26 00:40:05;;;;;;;4.68;4.20;;;;;;;;;;4992524;28;20288;-83
2021/10/26 00:42:33;;;;;;;5.80;5.20;;;;;;;;;;4993346;28;20197;-79
2021/10/26 00:45:02;;;;;;;4.70;4.30;;;;;;;;;;4992008;28;20567;-80
2021/10/26 00:47:29;;;;;;;4.30;3.92;;;;;;;;;;4985866;28;20202;-80
2021/10/26 00:49:56;;;;;;;4.80;4.00;;;;;;;;;;4993538;28;20206;-80
2021/10/26 00:52:23;;;;;;;4.28;3.88;;;;;;;;;;4992855;28;20271;-80
2021/10/26 00:54:50;;;;;;;6.60;5.07;;;;;;;;;;4991301;28;20723;-80
2021/10/26 00:57:21;;;;;;;4.97;4.40;;;;;;;;;;4992407;28;20204;-80
2021/10/26 00:59:48;;;;;;;6.72;5.20;;;;;;;;;;4990995;28;20304;-80
2021/10/26 01:02:17;;;;;;;5.25;4.75;;;;;;;;;;4990905;28;20220;-81
2021/10/26 01:04:44;;;;;;;4.43;4.03;;;;;;;;;;4992944;28;20201;-79
2021/10/26 01:07:11;;;;;;;5.07;4.57;;;;;;;;;;4991724;28;20563;-79
2021/10/26 01:09:39;;;;;;;9.60;4.30;;;;;;;;;;4988537;28;20194;-79
2021/10/26 01:12:06;;;;;;;4.10;3.60;;;;;;;;;;4990413;28;20217;-79
2021/10/26 01:14:33;;;;;;;4.20;3.80;;;;;;;;;;4993553;28;20593;-79
2021/10/26 01:17:03;;;;;;;5.68;4.55;;;;;;;;;;4990353;28;20195;-79
2021/10/26 01:19:42;;;;;;;4.55;4.05;;;;;;;;;;4980552;28;20206;-79
2021/10/26 01:22:09;;;;;;;4.70;4.30;;;;;;;;;;4982018;28;20245;-78
2021/10/26 01:24:36;;;;;;;8.10;4.00;;;;;;;;;;4974288;28;20206;-78
2021/10/26 01:27:03;;;;;;;7.13;4.20;;;;;;;;;;4978484;28;20561;-78
2021/10/26 01:29:30;;;;;;;3.17;2.88;;;;;;;;;;4992978;28;20197;-79
2021/10/26 01:31:59;;;;;;;4.32;3.92;;;;;;;;;;4988181;28;20193;-80
2021/10/26 01:34:26;;;;;;;4.93;4.43;;;;;;;;;;4990898;28;20217;-80
2021/10/26 01:36:54;;;;;;;5.45;4.70;;;;;;;;;;4992265;28;20208;-80
2021/10/26 01:39:21;;;;;;;7.30;4.40;;;;;;;;;;4992872;28;20201;-81
2021/10/26 01:41:49;;;;;;;4.82;4.35;;;;;;;;;;4986847;28;20194;-84
2021/10/26 01:44:16;;;;;;;7.05;4.65;;;;;;;;;;4987368;28;20238;-83
2021/10/26 01:46:43;;;;;;;4.43;3.80;;;;;;;;;;4985399;28;20201;-82
2021/10/26 01:49:10;;;;;;;3.78;3.20;;;;;;;;;;4978926;28;20200;-82
2021/10/26 01:51:37;;;;;;;3.80;3.42;;;;;;;;;;4991743;28;20231;-80
2021/10/26 01:54:06;;;;;;;3.65;3.28;;;;;;;;;;4988840;28;20221;-79
2021/10/26 01:56:33;;;;;;;5.93;5.10;;;;;;;;;;4991069;28;20240;-79
2021/10/26 01:59:00;;;;;;;10.02;4.85;;;;;;;;;;4992138;28;20660;-79
2021/10/26 02:01:27;;;;;;;3.75;3.40;;;;;;;;;;4987939;28;20198;-79
2021/10/26 02:03:54;;;;;;;4.82;4.43;;;;;;;;;;4982652;28;20197;-79
2021/10/26 02:06:21;;;;;;;4.72;3.90;;;;;;;;;;4989358;28;20209;-79
2021/10/26 02:08:48;;;;;;;5.20;4.60;;;;;;;;;;4992014;28;20194;-79
2021/10/26 02:11:17;;;;;;;3.58;3.30;;;;;;;;;;4989335;28;20201;-79
2021/10/26 02:13:44;;;;;;;5.18;4.35;;;;;;;;;;4991059;28;20190;-79
2021/10/26 02:16:11;;;;;;;3.45;3.15;;;;;;;;;;4993160;28;20201;-79
2021/10/26 02:18:38;;;;;;;4.80;4.30;;;;;;;;;;4978780;28;20202;-80
2021/10/26 02:21:05;;;;;;;4.93;3.60;;;;;;;;;;4987287;28;20193;-79
2021/10/26 02:23:32;;;;;;;4.00;3.60;;;;;;;;;;4988949;28;20284;-80
2021/10/26 02:25:59;;;;;;;4.90;3.95;;;;;;;;;;4992087;28;20197;-79
2021/10/26 02:28:29;;;;;;;6.20;3.58;;;;;;;;;;4983153;28;20209;-79
2021/10/26 02:30:56;;;;;;;3.70;3.25;;;;;;;;;;4990218;28;20204;-79
2021/10/26 02:33:23;;;;;;;4.68;4.28;;;;;;;;;;4991768;28;20194;-79
2021/10/26 02:35:50;;;;;;;4.68;4.20;;;;;;;;;;4991686;28;20256;-80
2021/10/26 02:38:17;;;;;;;4.20;3.80;;;;;;;;;;4988971;28;20670;-79
2021/10/26 02:40:44;;;;;;;4.07;3.75;;;;;;;;;;4990452;28;20225;-79
2021/10/26 02:43:11;;;;;;;5.90;4.03;;;;;;;;;;4980303;28;20198;-79
2021/10/26 02:45:39;;;;;;;5.20;4.05;;;;;;;;;;4985507;28;20198;-80
2021/10/26 02:48:06;;;;;;;5.15;3.97;;;;;;;;;;4991946;28;20205;-79
2021/10/26 02:50:34;;;;;;;4.47;4.00;;;;;;;;;;4991092;28;20680;-81
2021/10/26 02:53:01;;;;;;;6.78;4.90;;;;;;;;;;4992102;28;20200;-82
2021/10/26 02:55:28;;;;;;;5.70;4.20;;;;;;;;;;4984790;28;20240;-80
2021/10/26 02:57:55;;;;;;;4.65;3.67;;;;;;;;;;4996294;28;20200;-80
2021/10/26 03:00:22;;;;;;;3.53;3.22;;;;;;;;;;4995525;28;20194;-81
2021/10/26 03:02:51;;;;;;;5.32;4.15;;;;;;;;;;4991268;28;20199;-82
2021/10/26 03:05:18;;;;;;;5.05;3.60;;;;;;;;;;4981417;28;20209;-82
2021/10/26 03:07:46;;;;;;;4.07;3.75;;;;;;;;;;4995892;28;20233;-83
2021/10/26 03:10:15;;;;;;;8.63;4.95;;;;;;;;;;4992502;28;20339;-82
2021/10/26 03:12:42;;;;;;;7.05;3.95;;;;;;;;;;4985077;28;20209;-86
2021/10/26 03:15:10;;;;;;;5.20;3.70;;;;;;;;;;4981100;28;20618;-83
2021/10/26 03:17:37;;;;;;;4.18;3.78;;;;;;;;;;4990313;28;20206;-82
2021/10/26 03:20:06;;;;;;;6.63;3.20;;;;;;;;;;4982369;28;20205;-82
2021/10/26 03:22:34;;;;;;;4.68;3.92;;;;;;;;;;4993341;28;20224;-85
2021/10/26 03:25:01;;;;;;;4.38;3.97;;;;;;;;;;4985850;28;20583;-83
2021/10/26 03:27:28;;;;;;;7.15;4.20;;;;;;;;;;4991280;28;20190;-82
2021/10/26 03:29:55;;;;;;;5.22;4.72;;;;;;;;;;4995955;28;20190;-83
2021/10/26 03:32:22;;;;;;;6.38;5.00;;;;;;;;;;4994017;28;20190;-82
2021/10/26 03:34:49;;;;;;;5.90;4.78;;;;;;;;;;4994833;28;20224;-82
2021/10/26 03:37:17;;;;;;;7.38;5.57;;;;;;;;;;4995355;28;20209;-83
2021/10/26 03:39:47;;;;;;;4.40;4.00;;;;;;;;;;4994026;28;20197;-83
2021/10/26 03:42:14;;;;;;;5.22;4.40;;;;;;;;;;4987258;28;20197;-83
2021/10/26 03:44:41;;;;;;;6.13;4.25;;;;;;;;;;4986203;28;20193;-84
2021/10/26 03:47:08;;;;;;;5.10;4.00;;;;;;;;;;4993271;28;20202;-83
2021/10/26 03:49:35;;;;;;;4.68;3.65;;;;;;;;;;4987229;28;20202;-82
2021/10/26 03:52:02;;;;;;;4.80;3.92;;;;;;;;;;4990289;28;20204;-82
2021/10/26 03:54:30;;;;;;;6.05;5.45;;;;;;;;;;4994637;28;20696;-81
2021/10/26 03:56:57;;;;;;;5.05;4.55;;;;;;;;;;4994520;28;20568;-82
2021/10/26 03:59:29;;;;;;;4.78;3.75;;;;;;;;;;4984433;28;20665;-82
2021/10/26 04:01:57;;;;;;;5.70;5.18;;;;;;;;;;4993730;28;20225;-82
2021/10/26 04:04:24;;;;;;;5.38;4.85;;;;;;;;;;4990220;28;20683;-80
2021/10/26 04:06:51;;;;;;;7.05;4.55;;;;;;;;;;4988143;28;20304;-81
2021/10/26 04:09:23;;;;;;;5.03;4.55;;;;;;;;;;4993624;28;20197;-82
2021/10/26 04:11:55;;;;;;;5.68;4.90;;;;;;;;;;4988704;28;20397;-81
2021/10/26 04:14:22;;;;;;;5.93;4.35;;;;;;;;;;4993836;28;20189;-81
2021/10/26 04:16:49;;;;;;;4.97;4.40;;;;;;;;;;4986511;28;20194;-83
2021/10/26 04:19:16;;;;;;;3.95;3.60;;;;;;;;;;4981800;28;20191;-80
2021/10/26 04:21:43;;;;;;;5.78;4.20;;;;;;;;;;4990968;28;20673;-81
2021/10/26 04:24:10;;;;;;;7.70;4.88;;;;;;;;;;4994077;28;20193;-81
2021/10/26 04:26:37;;;;;;;7.13;4.72;;;;;;;;;;4991128;28;20198;-82
2021/10/26 04:29:05;;;;;;;7.00;4.63;;;;;;;;;;4984692;28;20193;-80
2021/10/26 04:31:32;;;;;;;6.13;5.15;;;;;;;;;;4991648;28;20556;-79
2021/10/26 04:33:59;;;;;;;6.03;5.10;;;;;;;;;;4990230;28;20201;-81
2021/10/26 04:36:26;;;;;;;6.43;4.65;;;;;;;;;;4994765;28;20216;-83
2021/10/26 04:38:53;;;;;;;6.47;5.35;;;;;;;;;;4993791;28;20205;-80
2021/10/26 04:41:21;;;;;;;5.60;4.43;;;;;;;;;;4988125;28;20202;-80
2021/10/26 04:43:48;;;;;;;6.72;3.97;;;;;;;;;;4984170;28;20210;-80
2021/10/26 04:46:16;;;;;;;6.63;5.93;;;;;;;;;;4993238;28;20220;-80
2021/10/26 04:48:43;;;;;;;6.57;5.43;;;;;;;;;;4986713;28;20564;-80
2021/10/26 04:51:10;;;;;;;6.72;5.50;;;;;;;;;;4989744;28;20190;-81
2021/10/26 04:53:37;;;;;;;5.40;4.90;;;;;;;;;;4980302;28;20213;-80
2021/10/26 04:56:05;;;;;;;7.95;5.10;;;;;;;;;;4981875;28;20213;-80
2021/10/26 04:58:32;;;;;;;6.50;4.88;;;;;;;;;;4992249;28;20198;-81
2021/10/26 05:00:59;;;;;;;8.25;5.88;;;;;;;;;;4991824;28;20212;-79
2021/10/26 05:03:28;;;;;;;6.70;5.25;;;;;;;;;;4986262;28;20193;-83
2021/10/26 05:05:55;;;;;;;7.85;6.55;;;;;;;;;;4994806;28;20217;-84
2021/10/26 05:08:22;;;;;;;7.40;6.07;;;;;;;;;;4992501;28;20209;-83
2021/10/26 05:10:49;;;;;;;6.65;5.40;;;;;;;;;;4983711;28;20307;-82
2021/10/26 05:13:17;;;;;;;5.57;5.00;;;;;;;;;;4975150;28;20723;-83
2021/10/26 05:15:45;;;;;;;5.10;4.60;;;;;;;;;;4987716;28;20224;-83
2021/10/26 05:18:15;;;;;;;6.35;4.80;;;;;;;;;;4992380;28;20193;-81
2021/10/26 05:20:45;;;;;;;6.57;5.13;;;;;;;;;;4980235;28;20198;-81
2021/10/26 05:23:12;;;;;;;5.07;4.38;;;;;;;;;;4986274;28;20205;-80
2021/10/26 05:25:40;;;;;;;6.13;5.45;;;;;;;;;;4974115;28;20198;-81
2021/10/26 05:28:09;;;;;;;6.68;5.35;;;;;;;;;;4991127;28;20809;-80
2021/10/26 05:30:36;;;;;;;5.85;4.70;;;;;;;;;;4992061;28;20208;-79
2021/10/26 05:33:04;;;;;;;10.10;5.78;;;;;;;;;;4992123;28;20198;-77
2021/10/26 05:35:31;;;;;;;5.88;5.28;;;;;;;;;;4989350;28;20213;-79
2021/10/26 05:37:59;;;;;;;7.15;6.45;;;;;;;;;;4985070;28;20193;-79
2021/10/26 05:40:26;;;;;;;6.32;5.50;;;;;;;;;;4992756;28;20197;-80
2021/10/26 05:42:53;;;;;;;11.70;6.72;;;;;;;;;;4991590;28;20198;-81
2021/10/26 05:45:20;;;;;;;7.85;5.18;;;;;;;;;;4992997;28;20653;-81
2021/10/26 05:47:50;;;;;;;7.45;5.63;;;;;;;;;;4992249;28;20212;-80
2021/10/26 05:50:17;;;;;;;9.77;6.90;;;;;;;;;;4989640;28;20202;-80
2021/10/26 05:52:44;;;;;;;6.32;5.47;;;;;;;;;;4989618;28;20189;-80
2021/10/26 05:55:12;;;;;;;7.78;6.97;;;;;;;;;;4987628;28;20695;-80
2021/10/26 05:57:40;;;;;;;8.60;7.20;;;;;;;;;;4991300;28;20705;-80
2021/10/26 06:00:08;;;;;;;6.97;6.38;;;;;;;;;;4990283;28;21079;-79
2021/10/26 06:02:35;;;;;;;7.35;5.97;;;;;;;;;;4985993;28;20224;-81
2021/10/26 06:05:02;;;;;;;7.50;5.63;;;;;;;;;;4991675;28;20201;-81
2021/10/26 06:07:30;;;;;;;6.82;6.18;;;;;;;;;;4991106;28;20232;-81
2021/10/26 06:09:57;;;;;;;6.05;5.55;;;;;;;;;;4988962;28;20189;-81
2021/10/26 06:12:29;;;;;;;7.57;6.88;;;;;;;;;;4983343;28;20679;-81
2021/10/26 06:14:56;;;;;;;7.93;6.82;;;;;;;;;;4991476;28;20194;-81
2021/10/26 06:17:24;;;;;;;5.63;4.95;;;;;;;;;;4988632;28;20202;-82
2021/10/26 06:19:51;;;;;;;5.70;5.00;;;;;;;;;;4986153;28;20229;-81
2021/10/26 06:22:19;;;;;;;5.43;4.93;;;;;;;;;;4989958;28;20204;-82
2021/10/26 06:24:47;;;;;;;7.00;6.18;;;;;;;;;;4987832;28;20197;-84
2021/10/26 06:27:14;;;;;;;5.30;4.80;;;;;;;;;;4984486;28;20687;-84
2021/10/26 06:29:42;;;;;;;9.10;5.82;;;;;;;;;;4993183;28;20204;-83
2021/10/26 06:32:09;;;;;;;5.60;5.00;;;;;;;;;;4991639;28;20190;-84
2021/10/26 06:34:36;;;;;;;7.32;5.05;;;;;;;;;;4983858;28;20660;-84
2021/10/26 06:37:03;;;;;;;6.50;5.88;;;;;;;;;;4986021;28;20232;-84
2021/10/26 06:39:30;;;;;;;5.45;4.95;;;;;;;;;;4990783;28;20201;-82
2021/10/26 06:41:58;;;;;;;6.22;5.10;;;;;;;;;;4977593;28;20664;-82
2021/10/26 06:44:25;;;;;;;7.85;5.30;;;;;;;;;;4991931;28;20681;-82
2021/10/26 06:46:53;;;;;;;6.93;5.18;;;;;;;;;;4991620;28;20202;-82
2021/10/26 06:49:20;;;;;;;6.25;5.47;;;;;;;;;;4991951;28;20191;-82
2021/10/26 06:51:47;;;;;;;6.35;5.68;;;;;;;;;;4990470;28;20197;-81
2021/10/26 06:54:14;;;;;;;7.25;5.75;;;;;;;;;;4989309;28;20198;-82
2021/10/26 06:56:42;;;;;;;7.72;5.05;;;;;;;;;;4988589;28;20216;-80
2021/10/26 06:59:09;;;;;;;6.82;6.13;;;;;;;;;;4991265;28;20194;-80
2021/10/26 07:01:36;;;;;;;6.25;5.20;;;;;;;;;;4990904;28;20193;-79
2021/10/26 07:04:04;;;;;;;5.68;5.15;;;;;;;;;;4990433;28;20621;-79
2021/10/26 07:06:31;;;;;;;9.68;6.35;;;;;;;;;;4989264;28;20683;-76
2021/10/26 07:08:58;;;;;;;10.20;6.13;;;;;;;;;;4990907;28;20198;-77
2021/10/26 07:11:25;;;;;;;5.78;5.28;;;;;;;;;;4986344;28;20194;-78
2021/10/26 07:13:52;;;;;;;5.75;4.80;;;;;;;;;;4987268;28;20224;-79
2021/10/26 07:16:19;;;;;;;4.95;4.45;;;;;;;;;;4991595;28;20236;-79
2021/10/26 07:18:46;;;;;;;4.47;4.05;;;;;;;;;;4978167;28;20205;-79
2021/10/26 07:21:17;;;;;;;5.63;5.05;;;;;;;;;;4985265;28;20194;-79
2021/10/26 07:23:44;;;;;;;6.13;4.68;;;;;;;;;;4990283;28;20653;-79
2021/10/26 07:26:11;;;;;;;6.45;5.38;;;;;;;;;;4979980;28;20230;-80
2021/10/26 07:28:38;;;;;;;6.03;5.53;;;;;;;;;;4986618;28;20193;-80
2021/10/26 07:31:06;;;;;;;5.93;5.30;;;;;;;;;;4990226;28;20636;-80
2021/10/26 07:33:34;;;;;;;8.27;5.32;;;;;;;;;;4989824;28;20197;-80
2021/10/26 07:36:06;;;;;;;6.15;5.55;;;;;;;;;;4995563;28;20616;-81
2021/10/26 07:38:39;;;;;;;8.32;5.15;;;;;;;;;;4996386;28;20194;-81
2021/10/26 07:43:47;;;;;;;7.45;5.78;;;;;;;;;;4995932;28;20189;-80
2021/10/26 07:46:14;;;;;;;6.13;5.53;;;;;;;;;;4990539;28;20201;-81
2021/10/26 07:48:41;;;;;;;7.85;5.50;;;;;;;;;;4995368;28;20280;-80
2021/10/26 07:51:08;;;;;;;7.90;7.10;;;;;;;;;;4989277;28;20197;-81
2021/10/26 07:53:36;;;;;;;6.10;5.30;;;;;;;;;;4992743;28;20208;-80
2021/10/26 07:56:06;;;;;;;5.57;4.47;;;;;;;;;;4994268;28;20213;-80
2021/10/26 07:58:34;;;;;;;6.15;5.55;;;;;;;;;;4986424;28;20190;-80
2021/10/26 08:01:01;;;;;;;6.43;5.80;;;;;;;;;;4978553;28;20665;-80
2021/10/26 08:03:28;;;;;;;8.82;6.50;;;;;;;;;;4992750;28;20636;-79
2021/10/26 08:05:55;;;;;;;11.07;5.30;;;;;;;;;;4976168;28;20245;-78
2021/10/26 08:08:22;;;;;;;8.32;5.63;;;;;;;;;;4989688;28;20217;-81
2021/10/26 08:10:51;;;;;;;6.30;5.70;;;;;;;;;;4989830;28;20249;-80
2021/10/26 08:13:18;;;;;;;5.07;4.65;;;;;;;;;;4990135;28;20675;-80
2021/10/26 08:15:46;;;;;;;5.57;4.88;;;;;;;;;;4994336;28;20205;-79
2021/10/26 08:18:13;;;;;;;5.43;4.93;;;;;;;;;;4986973;28;20225;-81
2021/10/26 08:20:40;;;;;;;6.57;4.88;;;;;;;;;;4993016;28;20213;-80
2021/10/26 08:23:07;;;;;;;5.55;5.00;;;;;;;;;;4982884;28;20197;-77
2021/10/26 08:25:37;;;;;;;5.18;4.45;;;;;;;;;;4975568;28;20202;-81
2021/10/26 08:28:09;;;;;;;7.03;6.03;;;;;;;;;;4975842;28;20202;-81
2021/10/26 08:30:41;;;;;;;5.40;4.82;;;;;;;;;;4980179;28;20194;-81
2021/10/26 08:33:18;;;;;;;5.72;5.00;;;;;;;;;;4990446;28;20193;-81
2021/10/26 08:35:46;;;;;;;5.75;4.03;;;;;;;;;;4986474;28;20232;-80
2021/10/26 08:38:14;;;;;;;5.32;4.35;;;;;;;;;;4994110;28;20196;-80
2021/10/26 08:40:46;;;;;;;8.52;5.20;;;;;;;;;;4994062;28;20564;-80
2021/10/26 08:43:15;;;;;;;4.40;4.00;;;;;;;;;;4993429;28;20227;-79
2021/10/26 08:45:46;;;;;;;5.50;5.00;;;;;;;;;;4992782;28;20206;-82
2021/10/26 08:48:14;;;;;;;6.03;4.88;;;;;;;;;;4979373;28;20577;-78
2021/10/26 08:50:43;;;;;;;5.28;4.78;;;;;;;;;;4982283;28;20220;-79
2021/10/26 08:53:10;;;;;;;5.25;4.75;;;;;;;;;;4992536;28;20197;-77
2021/10/26 08:55:38;;;;;;;7.60;5.57;;;;;;;;;;4992390;28;20202;-77
2021/10/26 08:58:06;;;;;;;5.95;5.05;;;;;;;;;;4990413;28;20220;-78
2021/10/26 09:00:34;;;;;;;5.55;5.05;;;;;;;;;;4983944;28;20198;-78
2021/10/26 09:03:16;;;;;;;5.57;4.72;;;;;;;;;;4988164;28;20220;-78
2021/10/26 09:05:45;;;;;;;5.68;3.90;;;;;;;;;;4991580;28;20213;-78
2021/10/26 09:08:12;;;;;;;4.63;4.22;;;;;;;;;;4990962;28;20204;-78
2021/10/26 09:10:40;;;;;;;5.25;4.75;;;;;;;;;;4992466;28;20198;-78
2021/10/26 09:18:40;;;;;;;7.20;4.78;;;;;;;;;;4982665;28;20228;-78
2021/10/26 09:24:12;;;;;;;7.60;4.45;;;;;;;;;;4981441;28;20201;-78
2021/10/26 09:26:47;;;;;;;5.63;4.93;;;;;;;;;;4983904;28;20202;-78
2021/10/26 09:29:15;;;;;;;5.38;4.88;;;;;;;;;;4992597;28;20655;-79
2021/10/26 09:31:44;;;;;;;5.47;4.80;;;;;;;;;;4992453;28;20197;-78
2021/10/26 09:34:13;;;;;;;8.90;5.38;;;;;;;;;;4991729;28;20209;-78
2021/10/26 09:36:41;;;;;;;5.97;5.38;;;;;;;;;;4992569;28;20228;-78
2021/10/26 09:39:10;;;;;;;6.13;4.90;;;;;;;;;;4992382;28;20208;-77
2021/10/26 09:41:38;;;;;;;6.70;5.47;;;;;;;;;;4992372;28;20214;-78
2021/10/26 09:44:09;;;;;;;5.90;5.13;;;;;;;;;;4991888;28;20204;-78
2021/10/26 09:46:36;;;;;;;6.00;5.40;;;;;;;;;;4981579;28;20272;-78
2021/10/26 09:49:05;;;;;;;7.18;5.85;;;;;;;;;;4992017;28;20202;-79
2021/10/26 09:51:34;;;;;;;5.20;4.70;;;;;;;;;;4992711;28;20200;-77
2021/10/26 09:54:01;;;;;;;5.07;4.60;;;;;;;;;;4990658;28;20186;-79
2021/10/26 09:56:28;;;;;;;6.45;5.63;;;;;;;;;;4991191;28;20217;-78
2021/10/26 09:59:14;;;;;;;8.20;5.82;;;;;;;;;;4991948;28;20568;-78
2021/10/26 10:01:52;;;;;;;7.95;5.70;;;;;;;;;;4991896;28;20193;-78
2021/10/26 10:04:25;;;;;;;9.32;6.18;;;;;;;;;;4992078;28;20201;-78
2021/10/26 10:06:52;;;;;;;7.88;6.63;;;;;;;;;;4990579;28;20228;-78
2021/10/26 10:09:20;;;;;;;8.13;6.15;;;;;;;;;;4992123;28;20197;-78
2021/10/26 10:11:58;;;;;;;5.90;5.18;;;;;;;;;;4987356;28;20201;-79
2021/10/26 10:14:25;;;;;;;8.02;6.18;;;;;;;;;;4992498;28;20652;-78
2021/10/26 10:16:52;;;;;;;6.03;5.50;;;;;;;;;;4982192;28;20218;-78
2021/10/26 10:19:20;;;;;;;9.57;6.55;;;;;;;;;;4972499;28;20195;-78
2021/10/26 10:21:50;;;;;;;6.40;5.40;;;;;;;;;;4988102;28;20204;-76
2021/10/26 10:24:18;;;;;;;7.80;5.47;;;;;;;;;;4983349;28;20619;-77
2021/10/26 10:26:49;;;;;;;7.05;6.10;;;;;;;;;;4989519;28;20205;-79
2021/10/26 10:29:16;;;;;;;5.32;4.65;;;;;;;;;;4979385;28;20264;-77
2021/10/26 10:31:44;;;;;;;5.30;4.70;;;;;;;;;;4981064;28;20210;-77
2021/10/26 10:34:11;;;;;;;5.55;5.05;;;;;;;;;;4989709;28;20208;-80
2021/10/26 10:36:41;;;;;;;8.30;5.15;;;;;;;;;;4990282;28;20217;-80
2021/10/26 10:39:10;;;;;;;6.10;5.47;;;;;;;;;;4988017;28;20198;-79
2021/10/26 10:41:38;;;;;;;4.38;3.97;;;;;;;;;;4979865;28;20198;-80
2021/10/26 10:44:08;;;;;;;5.95;5.28;;;;;;;;;;4989873;28;20203;-80
2021/10/26 10:46:39;;;;;;;8.45;4.65;;;;;;;;;;4991235;28;20234;-80
2021/10/26 10:49:27;;;;;;;7.65;4.50;;;;;;;;;;4986371;28;20463;-80
2021/10/26 10:51:54;;;;;;;5.18;3.90;;;;;;;;;;4990127;28;20228;-80
2021/10/26 10:54:44;;;;;;;3.75;3.45;;;;;;;;;;4982197;28;20206;-80
2021/10/26 10:57:17;;;;;;;5.30;3.80;;;;;;;;;;4996497;28;20300;-80
2021/10/26 10:59:44;;;;;;;5.07;3.70;;;;;;;;;;4990176;28;20193;-80
2021/10/26 11:02:21;;;;;;;6.32;3.92;;;;;;;;;;4983466;28;20193;-80
2021/10/26 11:04:48;;;;;;;5.30;2.85;;;;;;;;;;4985513;28;20661;-78
2021/10/26 11:07:15;;;;;;;5.47;3.50;;;;;;;;;;4976956;28;20706;-78
2021/10/26 11:09:55;;;;;;;4.25;3.63;;;;;;;;;;4985339;28;20194;-77
2021/10/26 11:12:34;;;;;;;7.70;2.70;;;;;;;;;;4982758;28;20204;-75
2021/10/26 11:15:02;;;;;;;4.53;2.80;;;;;;;;;;4993606;28;20473;-76
2021/10/26 11:18:00;;;;;;;3.83;3.33;;;;;;;;;;4988801;28;20229;-76
2021/10/26 11:20:40;;;;;;;3.67;3.22;;;;;;;;;;4985823;28;20699;-76
2021/10/26 11:23:09;;;;;;;3.60;2.75;;;;;;;;;;4979316;28;20201;-76
2021/10/26 11:25:38;;;;;;;7.15;3.17;;;;;;;;;;4987355;28;20683;-76
2021/10/26 11:28:23;;;;;;;7.15;3.42;;;;;;;;;;4991853;28;20198;-76
2021/10/26 11:30:55;;;;;;;6.40;2.90;;;;;;;;;;4990696;28;20244;-76
2021/10/26 11:33:31;;;;;;;3.28;2.50;;;;;;;;;;4981715;28;20193;-75
2021/10/26 11:36:02;;;;;;;3.88;2.63;;;;;;;;;;4994173;28;20189;-76
2021/10/26 11:38:31;;;;;;;3.67;2.58;;;;;;;;;;4989905;28;20627;-76
2021/10/26 11:40:59;;;;;;;2.47;2.28;;;;;;;;;;4989318;28;20222;-76
2021/10/26 11:43:27;;;;;;;3.83;3.13;;;;;;;;;;4985198;28;20254;-79
2021/10/26 11:45:55;;;;;;;4.38;2.30;;;;;;;;;;4977790;28;20198;-76
2021/10/26 11:48:38;;;;;;;2.70;2.30;;;;;;;;;;4979794;28;20285;-75
2021/10/26 11:51:15;;;;;;;2.60;2.40;;;;;;;;;;4986456;28;20202;-75
2021/10/26 11:53:42;;;;;;;4.07;2.58;;;;;;;;;;4994648;28;20194;-75
2021/10/26 11:56:21;;;;;;;2.95;2.53;;;;;;;;;;4992784;28;20202;-77
2021/10/26 11:58:54;;;;;;;4.53;2.40;;;;;;;;;;4994002;28;20221;-77
2021/10/26 12:01:23;;;;;;;2.25;2.05;;;;;;;;;;4986606;28;20210;-77
2021/10/26 12:03:50;;;;;;;6.55;3.05;;;;;;;;;;4980558;28;20231;-77
2021/10/26 12:06:29;;;;;;;7.88;3.20;;;;;;;;;;4975048;28;20218;-78
2021/10/26 12:08:57;;;;;;;2.25;1.85;;;;;;;;;;4981465;28;20293;-78
2021/10/26 12:11:29;;;;;;;2.92;1.90;;;;;;;;;;4982985;28;20201;-78
2021/10/26 12:14:11;;;;;;;3.75;2.00;;;;;;;;;;4993046;28;20229;-75
2021/10/26 12:16:39;;;;;;;6.93;2.22;;;;;;;;;;4990886;28;20208;-77
2021/10/26 12:19:06;;;;;;;3.22;2.10;;;;;;;;;;4988352;28;20221;-75
2021/10/26 12:21:33;;;;;;;10.77;2.10;;;;;;;;;;4982393;28;20201;-76
2021/10/26 12:24:00;;;;;;;2.40;2.03;;;;;;;;;;4984006;28;20197;-75
2021/10/26 12:26:27;;;;;;;4.00;2.50;;;;;;;;;;4985270;28;20675;-75
2021/10/26 12:28:58;;;;;;;4.55;2.20;;;;;;;;;;4981634;28;20205;-76
2021/10/26 12:31:26;;;;;;;2.70;2.28;;;;;;;;;;4988687;28;20197;-76
2021/10/26 12:34:01;;;;;;;2.90;2.13;;;;;;;;;;4985952;28;20689;-75
2021/10/26 12:36:29;;;;;;;12.30;2.60;;;;;;;;;;4987029;28;20209;-75
2021/10/26 12:39:04;;;;;;;2.40;1.65;;;;;;;;;;4981955;28;20218;-76
2021/10/26 12:41:37;;;;;;;5.38;2.08;;;;;;;;;;4990695;28;20195;-76
2021/10/26 12:44:07;;;;;;;4.47;1.73;;;;;;;;;;4984812;28;20194;-75
2021/10/26 12:46:36;;;;;;;3.72;2.13;;;;;;;;;;4981652;28;20535;-75
2021/10/26 12:49:07;;;;;;;3.03;1.95;;;;;;;;;;4977583;28;20377;-76
2021/10/26 12:51:34;;;;;;;2.28;1.90;;;;;;;;;;4990528;28;20213;-78
2021/10/26 12:54:11;;;;;;;3.00;1.83;;;;;;;;;;4991025;28;20197;-75
2021/10/26 12:56:45;;;;;;;4.07;1.80;;;;;;;;;;4973903;28;20261;-76
2021/10/26 12:59:17;;;;;;;2.88;1.80;;;;;;;;;;4973651;28;20273;-76
2021/10/26 13:01:47;;;;;;;2.53;2.00;;;;;;;;;;4979336;28;20194;-77
2021/10/26 13:04:20;;;;;;;2.45;2.00;;;;;;;;;;4989227;28;20557;-76
2021/10/26 13:06:49;;;;;;;3.28;1.80;;;;;;;;;;4987147;28;20313;-76
2021/10/26 13:09:23;;;;;;;3.75;2.25;;;;;;;;;;4978387;28;20243;-76
2021/10/26 13:12:01;;;;;;;5.40;2.00;;;;;;;;;;4979079;28;20200;-77
2021/10/26 13:14:37;;;;;;;6.00;3.83;;;;;;;;;;4991573;28;20517;-76
2021/10/26 13:17:21;;;;;;;2.85;1.83;;;;;;;;;;4987091;28;20200;-76
2021/10/26 13:19:48;;;;;;;2.55;1.65;;;;;;;;;;4983402;28;20201;-76
2021/10/26 13:22:16;;;;;;;4.60;2.05;;;;;;;;;;4986056;28;20194;-77
2021/10/26 13:24:43;;;;;;;2.03;1.77;;;;;;;;;;4983627;28;20272;-77
2021/10/26 13:27:11;;;;;;;4.07;3.22;;;;;;;;;;4987006;28;20208;-77
2021/10/26 13:29:41;;;;;;;6.28;1.83;;;;;;;;;;4993643;28;20204;-77
2021/10/26 13:32:18;;;;;;;3.55;1.92;;;;;;;;;;4989110;28;20669;-76
2021/10/26 13:34:45;;;;;;;3.65;1.80;;;;;;;;;;4990293;28;20189;-76
2021/10/26 13:37:12;;;;;;;8.77;2.53;;;;;;;;;;4991298;28;20565;-77
2021/10/26 13:39:40;;;;;;;7.38;2.00;;;;;;;;;;4979765;28;20194;-76
2021/10/26 13:42:07;;;;;;;3.33;2.20;;;;;;;;;;4983084;28;20205;-76
2021/10/26 13:44:34;;;;;;;3.55;1.70;;;;;;;;;;4982431;28;20557;-76
2021/10/26 13:47:03;;;;;;;3.15;1.80;;;;;;;;;;4993408;28;20224;-76
2021/10/26 13:49:30;;;;;;;2.20;1.70;;;;;;;;;;4995323;28;20197;-76
2021/10/26 13:51:57;;;;;;;4.00;1.80;;;;;;;;;;4992637;28;20194;-77
2021/10/26 13:54:25;;;;;;;3.30;1.50;;;;;;;;;;4990385;28;20675;-76
2021/10/26 13:56:52;;;;;;;4.43;1.90;;;;;;;;;;4978807;28;20197;-77
2021/10/26 13:59:19;;;;;;;3.22;1.77;;;;;;;;;;4986082;28;20224;-77
2021/10/26 14:01:47;;;;;;;3.08;2.22;;;;;;;;;;4982241;28;20542;-77
2021/10/26 14:04:16;;;;;;;4.95;1.83;;;;;;;;;;4979388;28;20214;-78
2021/10/26 14:06:44;;;;;;;5.15;1.98;;;;;;;;;;4983337;28;20702;-78
2021/10/26 14:09:11;;;;;;;4.18;1.60;;;;;;;;;;4977386;28;20209;-81
2021/10/26 14:11:38;;;;;;;2.90;1.55;;;;;;;;;;4988578;28;20201;-79
2021/10/26 14:14:06;;;;;;;2.75;2.25;;;;;;;;;;4981144;28;20190;-78
2021/10/26 14:16:34;;;;;;;4.95;1.80;;;;;;;;;;4987973;28;20212;-77
2021/10/26 14:19:01;;;;;;;3.00;1.98;;;;;;;;;;4979077;28;20652;-77
2021/10/26 14:21:33;;;;;;;5.10;1.75;;;;;;;;;;4979101;28;20197;-77
2021/10/26 14:24:00;;;;;;;3.45;1.90;;;;;;;;;;4988302;28;20236;-76
2021/10/26 14:26:27;;;;;;;3.72;1.73;;;;;;;;;;4991959;28;20213;-77
2021/10/26 14:28:54;;;;;;;2.15;1.88;;;;;;;;;;4987702;28;20201;-74
2021/10/26 14:31:22;;;;;;;2.60;1.73;;;;;;;;;;4991113;28;20209;-76
2021/10/26 14:33:52;;;;;;;3.47;2.05;;;;;;;;;;4989262;28;20197;-77
2021/10/26 14:36:20;;;;;;;4.30;1.50;;;;;;;;;;4991879;28;20198;-78
2021/10/26 14:38:59;;;;;;;1.88;1.63;;;;;;;;;;4987398;28;20225;-77
2021/10/26 14:41:42;;;;;;;4.00;2.05;;;;;;;;;;4988763;28;20263;-79
2021/10/26 14:55:12;;;;;;;7.78;2.55;;;;;;;;;;4993067;28;20623;-78
2021/10/26 14:57:39;;;;;;;4.15;1.88;;;;;;;;;;4981811;28;20228;-75
2021/10/26 15:00:07;;;;;;;2.95;1.70;;;;;;;;;;4994048;28;20190;-77
2021/10/26 15:02:34;;;;;;;3.47;2.28;;;;;;;;;;4992371;28;20431;-76
2021/10/26 15:05:01;;;;;;;3.35;1.58;;;;;;;;;;4984427;28;20568;-77
2021/10/26 15:07:28;;;;;;;5.65;2.22;;;;;;;;;;4985853;28;20332;-76
2021/10/26 15:09:58;;;;;;;4.50;1.95;;;;;;;;;;4995426;28;20209;-78
2021/10/26 15:12:38;;;;;;;5.63;1.92;;;;;;;;;;4994229;28;20189;-77
2021/10/26 15:15:07;;;;;;;5.32;1.60;;;;;;;;;;4983555;28;20216;-78